Meteo Giornale » Osservazioni meteo Sud Africa » Waterkloof Lmb
ore: 18:00 - Osservazioni Meteo Waterkloof Lmb
Lat. 25° 50' S Lon. 28° 13' E Alt. 1498 metri s.l.m.
23 °C
Sereno
Temp. 24 Ore
10 °C
26 °C
Nord-Est
9.3 Km/h
Dew point 3 °C
Umidità 26 %
Visibilità 12 Km
Il sole sorge alle ore 06:19
Il sole tramonta alle ore 17:54
| Data e Ora | Cielo e Fenomeni | T °C | DP °C | Um. % | Pres. hPa | Vis. km | Vento km/h | |
|---|---|---|---|---|---|---|---|---|
| Oggi h: 18:00 | Sereno | 23 | 3 | 26 | 1028 | 12 | NE 9.3 | |
| Oggi h: 17:00 | Sereno | 25 | 2 | 22 | 1028 | 12 | N/NE 13 | |
| Oggi h: 16:00 | Sereno | 26 | 2 | 20 | 1028 | 11 | N/NE 16.7 | |
| Oggi h: 15:00 | Sereno | 26 | 2 | 20 | 1028 | 11 | N/NE 13 | |
| Oggi h: 14:00 | Sereno | 26 | 4 | 24 | 1029 | 11 | N 11.1 | |
| Oggi h: 13:00 | Sereno | 25 | 4 | 25 | 1029 | 11 | N/NE 9.3 | |
| Oggi h: 12:00 | Sereno | 24 | 5 | 29 | 1030 | 11 | N/NE 11.1 | |
| Oggi h: 11:00 | Sereno | 22 | 6 | 35 | 1031 | 11 | N/NE 11.1 | |
| Oggi h: 10:00 | Sereno | 21 | 5 | 35 | 1032 | 11 | NE 9.3 | |
| Oggi h: 09:00 | Sereno | 19 | 6 | 42 | 1032 | 11 | NE 13 | |
| Oggi h: 08:00 | Sereno | 18 | 5 | 42 | 1031 | 11 | NE 11.1 | |
| Oggi h: 07:00 | Sereno | 10 | 4 | 66 | 1030 | 11 | N 3.7 | |
| Oggi h: 06:00 | Sereno | 10 | 3 | 61 | 1029 | 10 | N 3.7 | |
| Oggi h: 05:00 | Sereno | 10 | 4 | 66 | 1029 | 10 | N 3.7 | |
| Oggi h: 04:00 | Sereno | 11 | 4 | 61 | 1029 | 10 | N 5.5 | |
| Oggi h: 03:00 | Sereno | 14 | 3 | 47 | 1029 | 10 | N 3.7 | |
| Oggi h: 02:00 | Sereno | 13 | 3 | 50 | 1029 | 10 | S 9.3 | |
| Oggi h: 01:00 | Sereno | 15 | 3 | 44 | 1029 | 0 | S/SE 9.3 | |
| Oggi h: 00:00 | Sereno | 16 | 3 | 41 | 1030 | 0 | S/SE 14.8 | |
| Ieri h: 23:00 | Sereno | 16 | 3 | 41 | 1030 | 0 | S/SE 14.8 | |
| Ieri h: 22:00 | Sereno | 17 | 1 | 33 | 1030 | 0 | SE 7.4 | |
| Ieri h: 21:00 | Sereno | 17 | 1 | 33 | 1029 | 0 | SE 7.4 | |
| Ieri h: 20:00 | Sereno | 19 | 1 | 29 | 1029 | 0 | N 3.7 | |



